createdAt,value
2018-02-25T00:00:01.513Z,19.92
2018-02-25T00:01:01.467Z,19.84
2018-02-25T00:02:01.421Z,19.73
2018-02-25T00:03:01.379Z,19.82
2018-02-25T00:04:01.342Z,19.25
2018-02-25T00:05:01.291Z,19.25
2018-02-25T00:06:01.252Z,19.45
2018-02-25T00:07:01.209Z,19.64
2018-02-25T00:08:01.165Z,19.64
2018-02-25T00:09:01.123Z,19.54
2018-02-25T00:10:01.080Z,19.73
2018-02-25T00:11:01.035Z,19.64
2018-02-25T00:12:00.992Z,19.92
2018-02-25T00:13:00.962Z,19.73
2018-02-25T00:14:00.907Z,19.73
2018-02-25T00:15:00.861Z,19.82
2018-02-25T00:16:00.821Z,19.82
2018-02-25T00:17:00.779Z,19.82
2018-02-25T00:18:00.735Z,19.54
2018-02-25T00:19:00.692Z,19.82
2018-02-25T00:20:00.651Z,19.64
2018-02-25T00:21:00.608Z,19.82
2018-02-25T00:22:00.562Z,19.82
2018-02-25T00:23:00.520Z,19.54
2018-02-25T00:24:00.477Z,19.54
2018-02-25T00:25:00.437Z,19.25
2018-02-25T00:26:00.392Z,19.73
2018-02-25T00:27:00.350Z,19.25
2018-02-25T00:28:00.326Z,19.64
2018-02-25T00:29:00.264Z,19.82
2018-02-25T00:30:00.220Z,19.73
2018-02-25T00:31:00.183Z,19.54
2018-02-25T00:32:00.133Z,19.82
2018-02-25T00:33:00.092Z,19.54
2018-02-25T00:34:00.053Z,19.25
2018-02-25T00:35:00.006Z,19.54
2018-02-25T00:35:59.968Z,19.64
2018-02-25T00:36:59.920Z,19.54
2018-02-25T00:37:59.883Z,19.64
2018-02-25T00:38:59.835Z,19.73
2018-02-25T00:39:59.798Z,19.82
2018-02-25T00:40:59.748Z,19.73
2018-02-25T00:41:59.710Z,19.73
2018-02-25T00:42:59.662Z,19.16
2018-02-25T00:43:59.622Z,19.45
2018-02-25T00:44:59.579Z,19.73
2018-02-25T00:45:59.536Z,19.73
2018-02-25T00:46:59.496Z,19.54
2018-02-25T00:47:59.451Z,19.54
2018-02-25T00:48:59.409Z,19.25
2018-02-25T00:49:59.362Z,19.64
2018-02-25T00:50:59.323Z,19.25
2018-02-25T00:51:59.284Z,19.45
2018-02-25T00:52:59.235Z,19.73
2018-02-25T00:53:59.192Z,19.73
2018-02-25T00:54:59.151Z,19.64
2018-02-25T00:55:59.109Z,19.82
2018-02-25T00:56:59.058Z,20.02
2018-02-25T00:57:59.022Z,19.64
2018-02-25T00:58:58.977Z,19.45
2018-02-25T00:59:58.935Z,19.54
2018-02-25T01:00:58.893Z,20.12
2018-02-25T01:01:58.853Z,20.02
2018-02-25T01:02:58.810Z,20.02
2018-02-25T01:03:58.769Z,19.73
2018-02-25T01:04:58.722Z,19.64
2018-02-25T01:05:58.684Z,19.64
2018-02-25T01:06:58.636Z,19.82
2018-02-25T01:07:58.591Z,19.73
2018-02-25T01:08:58.550Z,19.82
2018-02-25T01:09:58.507Z,19.73
2018-02-25T01:10:58.464Z,19.25
2018-02-25T01:11:58.425Z,19.35
2018-02-25T01:12:58.379Z,19.73
2018-02-25T01:13:58.336Z,19.92
2018-02-25T01:14:58.294Z,19.82
2018-02-25T01:15:58.254Z,19.82
2018-02-25T01:16:58.208Z,19.25
2018-02-25T01:17:58.164Z,19.73
2018-02-25T01:18:58.121Z,19.73
2018-02-25T01:19:58.079Z,19.64
2018-02-25T01:20:58.034Z,19.64
2018-02-25T01:21:57.993Z,19.35
2018-02-25T01:22:57.953Z,19.54
2018-02-25T01:23:57.906Z,19.73
2018-02-25T01:24:57.865Z,19.54
2018-02-25T01:25:57.819Z,19.73
2018-02-25T01:26:57.777Z,19.73
2018-02-25T01:27:57.735Z,19.82
2018-02-25T01:28:57.693Z,19.35
2018-02-25T01:29:57.706Z,19.54
2018-02-25T01:30:57.606Z,19.35
2018-02-25T01:31:57.564Z,19.54
2018-02-25T01:32:57.521Z,19.45
2018-02-25T01:33:57.491Z,19.82
2018-02-25T01:34:57.435Z,19.73
2018-02-25T01:35:57.394Z,19.25
2018-02-25T01:36:57.350Z,19.25
2018-02-25T01:37:57.306Z,19.64
2018-02-25T01:38:57.269Z,19.73
2018-02-25T01:39:57.220Z,19.45
2018-02-25T01:40:57.187Z,19.64
2018-02-25T01:41:57.141Z,19.64
2018-02-25T01:42:57.092Z,19.25
2018-02-25T01:43:57.049Z,19.25
2018-02-25T01:44:57.001Z,19.82
2018-02-25T01:45:56.974Z,19.73
2018-02-25T01:46:56.920Z,19.45
2018-02-25T01:47:56.876Z,19.26
2018-02-25T01:48:56.833Z,19.36
2018-02-25T01:49:56.792Z,19.74
2018-02-25T01:50:56.748Z,19.45
2018-02-25T01:51:56.704Z,19.35
2018-02-25T01:52:56.665Z,19.74
2018-02-25T01:53:56.623Z,19.35
2018-02-25T01:54:56.578Z,19.65
2018-02-25T01:55:56.535Z,19.35
2018-02-25T01:56:56.492Z,19.25
2018-02-25T01:57:56.452Z,19.25
2018-02-25T01:58:56.406Z,19.35
2018-02-25T01:59:56.363Z,19.35
2018-02-25T02:00:56.322Z,19.25
2018-02-25T02:01:56.283Z,19.25
2018-02-25T02:02:56.236Z,19.35
2018-02-25T02:03:56.191Z,19.35
2018-02-25T02:04:56.152Z,19.25
2018-02-25T02:05:56.109Z,19.45
2018-02-25T02:06:56.071Z,19.35
2018-02-25T02:07:56.025Z,19.16
2018-02-25T02:08:55.987Z,19.35
2018-02-25T02:09:55.939Z,19.25
2018-02-25T02:10:55.893Z,19.54
2018-02-25T02:11:55.851Z,19.35
2018-02-25T02:12:55.809Z,19.64
2018-02-25T02:13:55.765Z,19.25
2018-02-25T02:14:55.728Z,19.25
2018-02-25T02:15:55.684Z,19.45
2018-02-25T02:16:55.639Z,19.82
2018-02-25T02:17:55.595Z,19.73
2018-02-25T02:18:55.550Z,19.82
2018-02-25T02:19:55.503Z,19.35
2018-02-25T02:20:55.469Z,19.45
2018-02-25T02:21:55.424Z,19.45
2018-02-25T02:22:55.384Z,19.35
2018-02-25T02:23:55.341Z,19.54
2018-02-25T02:24:55.293Z,19.64
2018-02-25T02:25:55.254Z,19.64
2018-02-25T02:26:55.215Z,19.82
2018-02-25T02:27:55.169Z,19.54
2018-02-25T02:28:55.125Z,19.45
2018-02-25T02:29:55.084Z,19.64
2018-02-25T02:30:55.040Z,19.73
2018-02-25T02:31:55.006Z,19.73
2018-02-25T02:32:54.971Z,19.54
2018-02-25T02:33:54.912Z,19.73
2018-02-25T02:34:54.868Z,19.73
2018-02-25T02:35:54.826Z,19.73
2018-02-25T02:36:54.785Z,19.64
2018-02-25T02:37:54.749Z,19.73
2018-02-25T02:38:54.696Z,19.73
2018-02-25T02:39:54.703Z,19.64
2018-02-25T02:40:54.612Z,19.54
2018-02-25T02:41:54.568Z,20.12
2018-02-25T02:42:54.531Z,19.54
2018-02-25T02:43:54.483Z,20.02
2018-02-25T02:44:54.441Z,19.54
2018-02-25T02:45:54.400Z,19.92
2018-02-25T02:46:54.356Z,19.73
2018-02-25T02:47:54.314Z,19.73
2018-02-25T02:48:54.269Z,19.82
2018-02-25T02:49:54.228Z,19.64
2018-02-25T02:50:54.183Z,19.73
2018-02-25T02:51:54.139Z,19.73
2018-02-25T02:52:54.112Z,19.64
2018-02-25T02:53:54.056Z,19.82
2018-02-25T02:54:54.022Z,19.73
2018-02-25T02:55:53.970Z,19.92
2018-02-25T02:56:53.928Z,19.73
2018-02-25T02:57:53.884Z,19.82
2018-02-25T02:58:53.841Z,19.64
2018-02-25T02:59:53.797Z,19.45
2018-02-25T03:00:53.756Z,19.73
2018-02-25T03:01:53.749Z,19.64
2018-02-25T03:02:53.670Z,19.45
2018-02-25T03:03:53.626Z,19.25
2018-02-25T03:04:53.585Z,19.73
2018-02-25T03:05:53.538Z,19.92
2018-02-25T03:06:53.495Z,19.73
2018-02-25T03:07:53.456Z,19.73
2018-02-25T03:08:53.412Z,19.54
2018-02-25T03:09:53.368Z,19.45
2018-02-25T03:10:53.325Z,19.25
2018-02-25T03:11:53.284Z,19.73
2018-02-25T03:12:53.240Z,19.25
2018-02-25T03:13:53.199Z,19.54
2018-02-25T03:14:53.154Z,19.73
2018-02-25T03:15:53.111Z,19.35
2018-02-25T03:16:53.070Z,19.45
2018-02-25T03:17:53.027Z,19.35
2018-02-25T03:18:52.984Z,19.35
2018-02-25T03:19:52.941Z,19.64
2018-02-25T03:20:52.906Z,19.73
2018-02-25T03:21:52.855Z,19.82
2018-02-25T03:22:52.811Z,19.25
2018-02-25T03:23:52.771Z,19.82
2018-02-25T03:24:52.734Z,19.45
2018-02-25T03:25:52.683Z,19.25
2018-02-25T03:26:52.648Z,19.45
2018-02-25T03:27:52.598Z,19.35
2018-02-25T03:28:52.563Z,19.64
2018-02-25T03:29:52.512Z,19.73
2018-02-25T03:30:52.466Z,19.64
2018-02-25T03:31:52.428Z,19.64
2018-02-25T03:32:52.380Z,19.82
2018-02-25T03:33:52.345Z,19.73
2018-02-25T03:34:52.301Z,19.25
2018-02-25T03:35:52.258Z,19.45
2018-02-25T03:36:52.210Z,19.45
2018-02-25T03:37:52.177Z,19.45
2018-02-25T03:38:52.127Z,19.54
2018-02-25T03:39:52.093Z,19.45
2018-02-25T03:40:52.046Z,19.64
2018-02-25T03:41:51.993Z,19.35
2018-02-25T03:42:51.966Z,19.54
2018-02-25T03:43:51.915Z,19.45
2018-02-25T03:44:51.874Z,19.45
2018-02-25T03:45:51.843Z,19.45
2018-02-25T03:46:51.785Z,19.25
2018-02-25T03:47:51.742Z,19.54
2018-02-25T03:48:51.704Z,19.25
2018-02-25T03:49:51.657Z,19.82
2018-02-25T03:50:51.616Z,19.25
2018-02-25T03:51:51.574Z,19.16
2018-02-25T03:52:51.530Z,19.25
2018-02-25T03:53:51.488Z,19.16
2018-02-25T03:54:51.445Z,19.25
2018-02-25T03:55:51.403Z,19.73
2018-02-25T03:56:51.358Z,19.54
2018-02-25T03:57:51.315Z,19.73
2018-02-25T03:58:51.273Z,19.64
2018-02-25T03:59:51.231Z,19.73
2018-02-25T04:00:51.189Z,19.64
2018-02-25T04:01:51.145Z,19.45
2018-02-25T04:02:51.102Z,19.45
2018-02-25T04:03:51.059Z,19.64
2018-02-25T04:04:51.017Z,19.45
2018-02-25T04:05:50.975Z,19.54
2018-02-25T04:06:50.931Z,19.54
2018-02-25T04:07:50.889Z,19.45
2018-02-25T04:08:50.846Z,19.54
2018-02-25T04:09:50.802Z,19.73
2018-02-25T04:10:50.765Z,19.64
2018-02-25T04:11:50.720Z,19.64
2018-02-25T04:12:50.674Z,19.92
2018-02-25T04:13:50.636Z,20.02
2018-02-25T04:14:50.588Z,19.35
2018-02-25T04:15:50.545Z,20.50
2018-02-25T04:16:50.511Z,20.12
2018-02-25T04:17:50.463Z,20.12
2018-02-25T04:18:50.419Z,20.31
2018-02-25T04:19:50.379Z,20.02
2018-02-25T04:20:50.332Z,19.82
2018-02-25T04:21:50.290Z,19.92
2018-02-25T04:22:50.246Z,20.12
2018-02-25T04:23:50.207Z,19.64
2018-02-25T04:24:50.162Z,19.82
2018-02-25T04:25:50.119Z,19.54
2018-02-25T04:26:50.076Z,20.50
2018-02-25T04:27:50.034Z,20.02
2018-02-25T04:28:49.990Z,19.82
2018-02-25T04:29:49.947Z,19.82
2018-02-25T04:30:49.901Z,20.02
2018-02-25T04:31:49.860Z,20.01
2018-02-25T04:32:49.814Z,19.72
2018-02-25T04:33:49.774Z,20.10
2018-02-25T04:34:49.733Z,20.12
2018-02-25T04:35:49.690Z,20.12
2018-02-25T04:36:49.651Z,20.31
2018-02-25T04:37:49.605Z,19.62
2018-02-25T04:38:49.571Z,19.43
2018-02-25T04:39:49.519Z,19.72
2018-02-25T04:40:49.474Z,19.72
2018-02-25T04:41:49.432Z,19.72
2018-02-25T04:42:49.384Z,19.82
2018-02-25T04:43:49.345Z,19.53
2018-02-25T04:44:49.302Z,19.62
2018-02-25T04:45:49.258Z,19.72
2018-02-25T04:46:49.215Z,19.73
2018-02-25T04:47:49.173Z,19.72
2018-02-25T04:48:49.129Z,20.02
2018-02-25T04:49:49.089Z,19.45
2018-02-25T04:50:49.048Z,19.45
2018-02-25T04:51:49.000Z,19.73
2018-02-25T04:52:48.958Z,19.64
2018-02-25T04:53:48.916Z,19.82
2018-02-25T04:54:48.871Z,19.73
2018-02-25T04:55:48.833Z,19.64
2018-02-25T04:56:48.784Z,19.73
2018-02-25T04:57:48.742Z,19.73
2018-02-25T04:58:48.699Z,19.25
2018-02-25T04:59:48.656Z,19.82
2018-02-25T05:00:48.619Z,19.92
2018-02-25T05:01:48.571Z,19.54
2018-02-25T05:02:48.529Z,19.54
2018-02-25T05:03:48.486Z,19.35
2018-02-25T05:04:48.441Z,19.54
2018-02-25T05:05:48.392Z,19.64
2018-02-25T05:06:48.358Z,19.25
2018-02-25T05:07:48.319Z,19.25
2018-02-25T05:08:48.270Z,19.64
2018-02-25T05:09:48.224Z,19.82
2018-02-25T05:10:48.183Z,19.25
2018-02-25T05:11:48.141Z,19.82
2018-02-25T05:12:48.095Z,19.54
2018-02-25T05:13:48.055Z,19.73
2018-02-25T05:14:48.005Z,19.73
2018-02-25T05:15:47.966Z,19.73
2018-02-25T05:16:47.936Z,19.25
2018-02-25T05:17:47.877Z,19.82
2018-02-25T05:18:47.838Z,19.64
2018-02-25T05:19:47.795Z,19.45
2018-02-25T05:20:47.752Z,19.35
2018-02-25T05:21:47.709Z,19.35
2018-02-25T05:22:47.666Z,19.25
2018-02-25T05:23:47.624Z,19.82
2018-02-25T05:24:47.582Z,19.54
2018-02-25T05:25:47.543Z,19.54
2018-02-25T05:26:47.498Z,19.64
2018-02-25T05:27:47.453Z,19.64
2018-02-25T05:28:47.419Z,19.64
2018-02-25T05:29:47.366Z,20.02
2018-02-25T05:30:47.323Z,20.50
2018-02-25T05:31:47.283Z,19.82
2018-02-25T05:32:47.237Z,19.73
2018-02-25T05:33:47.206Z,19.73
2018-02-25T05:34:47.152Z,19.73
2018-02-25T05:35:47.112Z,19.82
2018-02-25T05:36:47.066Z,19.73
2018-02-25T05:37:47.027Z,19.73
2018-02-25T05:38:46.987Z,19.73
2018-02-25T05:39:46.938Z,19.92
2018-02-25T05:40:46.899Z,19.16
2018-02-25T05:41:46.854Z,19.64
2018-02-25T05:42:46.809Z,19.25
2018-02-25T05:43:46.765Z,19.35
2018-02-25T05:44:46.720Z,19.35
2018-02-25T05:45:46.681Z,19.73
2018-02-25T05:46:46.639Z,19.25
2018-02-25T05:47:46.588Z,19.54
2018-02-25T05:48:46.553Z,19.25
2018-02-25T05:49:46.511Z,19.73
2018-02-25T05:50:46.467Z,19.73
2018-02-25T05:51:46.425Z,19.25
2018-02-25T05:52:46.381Z,19.45
2018-02-25T05:53:46.339Z,19.25
2018-02-25T05:54:46.322Z,19.45
2018-02-25T05:55:46.252Z,19.64
2018-02-25T05:56:46.209Z,19.64
2018-02-25T05:57:46.167Z,19.73
2018-02-25T05:58:46.128Z,19.92
2018-02-25T05:59:46.082Z,19.73
2018-02-25T06:00:46.039Z,19.64
2018-02-25T06:01:45.998Z,19.82
2018-02-25T06:02:45.953Z,19.82
2018-02-25T06:03:45.910Z,19.64
2018-02-25T06:04:45.867Z,19.82
2018-02-25T06:05:45.826Z,19.73
2018-02-25T06:06:45.791Z,19.64
2018-02-25T06:07:45.740Z,19.25
2018-02-25T06:08:45.696Z,19.25
2018-02-25T06:09:45.656Z,19.92
2018-02-25T06:10:45.608Z,19.45
2018-02-25T06:11:45.575Z,19.35
2018-02-25T06:12:45.525Z,19.64
2018-02-25T06:13:45.480Z,19.45
2018-02-25T06:14:45.437Z,19.92
2018-02-25T06:15:45.395Z,19.45
2018-02-25T06:16:45.353Z,19.25
2018-02-25T06:17:45.310Z,19.35
2018-02-25T06:18:45.271Z,19.73
2018-02-25T06:19:45.225Z,19.82
2018-02-25T06:20:45.181Z,19.73
2018-02-25T06:21:45.139Z,19.35
2018-02-25T06:22:45.096Z,19.64
2018-02-25T06:23:45.053Z,19.82
2018-02-25T06:24:45.016Z,19.82
2018-02-25T06:25:44.968Z,19.25
2018-02-25T06:26:44.928Z,19.35
2018-02-25T06:27:44.885Z,19.25
2018-02-25T06:28:44.838Z,19.64
2018-02-25T06:29:44.791Z,19.35
2018-02-25T06:30:44.753Z,19.45
2018-02-25T06:31:44.710Z,19.45
2018-02-25T06:32:44.667Z,19.35
2018-02-25T06:33:44.628Z,19.45
2018-02-25T06:34:44.581Z,19.45
2018-02-25T06:35:44.538Z,19.25
2018-02-25T06:36:44.497Z,19.35
2018-02-25T06:37:44.455Z,19.35
2018-02-25T06:38:44.412Z,19.54
2018-02-25T06:39:44.368Z,19.45
2018-02-25T06:40:44.328Z,19.35
2018-02-25T06:41:44.287Z,19.35
2018-02-25T06:42:44.239Z,18.98
2018-02-25T06:43:44.197Z,19.06
2018-02-25T06:44:44.155Z,19.16
2018-02-25T06:45:44.115Z,19.26
2018-02-25T06:46:44.067Z,19.25
2018-02-25T06:47:44.027Z,19.45
2018-02-25T06:48:43.982Z,19.26
2018-02-25T06:49:43.942Z,19.35
2018-02-25T06:50:43.897Z,19.07
2018-02-25T06:51:43.855Z,19.26
2018-02-25T06:52:43.812Z,19.17
2018-02-25T06:53:43.768Z,19.17
2018-02-25T06:54:43.732Z,19.45
2018-02-25T06:55:43.685Z,19.45
2018-02-25T06:56:43.643Z,19.36
2018-02-25T06:57:43.598Z,19.36
2018-02-25T06:58:43.556Z,19.65
2018-02-25T06:59:43.522Z,19.45
2018-02-25T07:00:43.468Z,19.74
2018-02-25T07:01:43.427Z,19.17
2018-02-25T07:02:43.381Z,19.17
2018-02-25T07:03:43.342Z,19.07
2018-02-25T07:04:43.301Z,18.59
2018-02-25T07:05:43.260Z,18.60
2018-02-25T07:06:43.216Z,18.51
2018-02-25T07:07:43.175Z,18.70
2018-02-25T07:08:43.131Z,18.42
2018-02-25T07:09:43.091Z,18.32
2018-02-25T07:10:43.044Z,18.23
2018-02-25T07:11:43.012Z,18.42
2018-02-25T07:12:42.959Z,18.13
2018-02-25T07:13:42.916Z,18.04
2018-02-25T07:14:42.874Z,17.46
2018-02-25T07:15:42.830Z,17.85
2018-02-25T07:16:42.786Z,17.37
2018-02-25T07:17:42.747Z,17.47
2018-02-25T07:18:42.706Z,16.99
2018-02-25T07:19:42.663Z,17.47
2018-02-25T07:20:42.620Z,16.99
2018-02-25T07:21:42.577Z,17.47
2018-02-25T07:22:42.535Z,17.38
2018-02-25T07:23:42.497Z,16.99
2018-02-25T07:24:42.453Z,16.61
2018-02-25T07:25:42.410Z,16.52
2018-02-25T07:26:42.371Z,16.42
2018-02-25T07:27:42.325Z,16.52
2018-02-25T07:28:42.283Z,16.33
2018-02-25T07:29:42.246Z,16.14
2018-02-25T07:30:42.198Z,16.33
2018-02-25T07:31:42.156Z,15.85
2018-02-25T07:32:42.114Z,15.66
2018-02-25T07:33:42.073Z,15.77
2018-02-25T07:34:42.030Z,15.86
2018-02-25T07:35:41.989Z,15.95
2018-02-25T07:36:41.945Z,15.86
2018-02-25T07:37:41.905Z,16.05
2018-02-25T07:38:41.861Z,15.95
2018-02-25T07:39:41.820Z,15.86
2018-02-25T07:40:41.780Z,15.67
2018-02-25T07:41:41.735Z,15.57
2018-02-25T07:42:41.695Z,15.95
2018-02-25T07:43:41.651Z,15.77
2018-02-25T07:44:41.672Z,15.38
2018-02-25T07:45:41.569Z,15.19
2018-02-25T07:46:41.530Z,15.29
2018-02-25T07:47:41.484Z,15.39
2018-02-25T07:48:41.444Z,15.00
2018-02-25T07:49:41.398Z,15.39
2018-02-25T07:50:41.359Z,14.90
2018-02-25T07:51:41.315Z,15.38
2018-02-25T07:52:41.277Z,15.57
2018-02-25T07:53:41.234Z,15.28
2018-02-25T07:54:41.193Z,15.38
2018-02-25T07:55:41.151Z,15.19
2018-02-25T07:56:41.111Z,15.58
2018-02-25T07:57:41.077Z,15.19
2018-02-25T07:58:41.026Z,15.29
2018-02-25T07:59:40.982Z,15.01
2018-02-25T08:00:40.944Z,14.71
2018-02-25T08:01:40.903Z,14.62
2018-02-25T08:02:40.858Z,14.72
2018-02-25T08:03:40.822Z,14.24
2018-02-25T08:04:40.776Z,14.34
2018-02-25T08:05:40.736Z,14.81
2018-02-25T08:06:40.694Z,14.53
2018-02-25T08:07:40.652Z,14.81
2018-02-25T08:08:40.610Z,14.81
2018-02-25T08:09:40.570Z,14.62
2018-02-25T08:10:40.528Z,14.42
2018-02-25T08:11:40.488Z,14.81
2018-02-25T08:12:40.444Z,14.62
2018-02-25T08:13:40.404Z,14.62
2018-02-25T08:14:40.362Z,14.71
2018-02-25T08:15:40.320Z,14.90
2018-02-25T08:16:40.278Z,14.90
2018-02-25T08:17:40.239Z,14.81
2018-02-25T08:18:40.197Z,14.90
2018-02-25T08:19:40.155Z,15.39
2018-02-25T08:20:40.115Z,15.29
2018-02-25T08:21:40.078Z,15.29
2018-02-25T08:22:40.031Z,15.19
2018-02-25T08:23:40.009Z,15.19
2018-02-25T08:24:39.952Z,15.09
2018-02-25T08:25:39.909Z,15.00
2018-02-25T08:26:39.865Z,15.38
2018-02-25T08:27:39.824Z,15.47
2018-02-25T08:28:39.785Z,15.09
2018-02-25T08:29:39.744Z,15.09
2018-02-25T08:30:39.702Z,15.28
2018-02-25T08:31:39.660Z,15.47
2018-02-25T08:32:39.620Z,15.77
2018-02-25T08:33:39.576Z,16.04
2018-02-25T08:34:39.538Z,16.04
2018-02-25T08:35:39.498Z,15.95
2018-02-25T08:36:39.480Z,15.95
2018-02-25T08:37:39.415Z,16.04
2018-02-25T08:38:39.373Z,16.04
2018-02-25T08:39:39.333Z,16.14
2018-02-25T08:40:39.291Z,16.24
2018-02-25T08:41:39.250Z,15.95
2018-02-25T08:42:39.208Z,16.24
2018-02-25T08:43:39.168Z,16.23
2018-02-25T08:44:39.127Z,16.23
2018-02-25T08:45:39.084Z,16.61
2018-02-25T08:46:39.041Z,16.42
2018-02-25T08:47:39.002Z,16.42
2018-02-25T08:48:38.960Z,16.52
2018-02-25T08:49:38.919Z,16.52
2018-02-25T08:50:38.876Z,16.61
2018-02-25T08:51:38.836Z,16.42
2018-02-25T08:52:38.796Z,16.61
2018-02-25T08:53:38.757Z,16.61
2018-02-25T08:54:38.712Z,16.61
2018-02-25T08:55:38.670Z,16.71
2018-02-25T08:56:38.630Z,16.42
2018-02-25T08:57:38.587Z,16.23
2018-02-25T08:58:38.545Z,16.52
2018-02-25T08:59:38.498Z,16.32
2018-02-25T09:00:38.464Z,16.13
2018-02-25T09:01:38.421Z,15.94
2018-02-25T09:02:38.381Z,16.52
2018-02-25T09:03:38.338Z,16.03
2018-02-25T09:04:38.299Z,16.23
2018-02-25T09:05:38.252Z,16.52
2018-02-25T09:06:38.214Z,15.84
2018-02-25T09:07:38.177Z,16.23
2018-02-25T09:08:38.130Z,16.60
2018-02-25T09:09:38.092Z,16.23
2018-02-25T09:10:38.048Z,16.50
2018-02-25T09:11:38.005Z,16.60
2018-02-25T09:12:37.987Z,16.13
2018-02-25T09:13:37.923Z,16.22
2018-02-25T09:14:37.880Z,16.50
2018-02-25T09:15:37.845Z,16.41
2018-02-25T09:16:37.800Z,16.70
2018-02-25T09:17:37.756Z,16.60
2018-02-25T09:18:37.718Z,16.50
2018-02-25T09:19:37.686Z,16.41
2018-02-25T09:20:37.631Z,16.41
2018-02-25T09:21:37.602Z,16.50
2018-02-25T09:22:37.549Z,16.31
2018-02-25T09:23:37.512Z,16.80
2018-02-25T09:24:37.464Z,16.89
2018-02-25T09:25:37.423Z,16.80
2018-02-25T09:26:37.381Z,16.50
2018-02-25T09:27:37.338Z,16.60
2018-02-25T09:28:37.299Z,16.50
2018-02-25T09:29:37.256Z,16.31
2018-02-25T09:30:37.224Z,16.60
2018-02-25T09:31:37.175Z,16.80
2018-02-25T09:32:37.131Z,16.80
2018-02-25T09:33:37.088Z,16.70
2018-02-25T09:34:37.045Z,16.50
2018-02-25T09:35:37.007Z,16.50
2018-02-25T09:36:36.959Z,16.50
2018-02-25T09:37:36.928Z,16.50
2018-02-25T09:38:36.878Z,16.50
2018-02-25T09:39:36.837Z,16.70
2018-02-25T09:40:36.806Z,16.13
2018-02-25T09:41:36.754Z,16.13
2018-02-25T09:42:36.710Z,15.93
2018-02-25T09:43:36.669Z,16.41
2018-02-25T09:44:36.627Z,16.50
2018-02-25T09:45:36.590Z,16.60
2018-02-25T09:46:36.539Z,16.31
2018-02-25T09:47:36.502Z,16.31
2018-02-25T09:48:36.458Z,16.50
2018-02-25T09:49:36.418Z,16.31
2018-02-25T09:50:36.374Z,16.41
2018-02-25T09:51:36.337Z,16.41
2018-02-25T09:52:36.290Z,16.60
2018-02-25T09:53:36.257Z,16.70
2018-02-25T09:54:36.208Z,16.41
2018-02-25T09:55:36.173Z,16.03
2018-02-25T09:56:36.124Z,15.93
2018-02-25T09:57:36.084Z,15.93
2018-02-25T09:58:36.049Z,15.93
2018-02-25T09:59:35.998Z,16.22
2018-02-25T10:00:35.957Z,15.83
2018-02-25T10:01:35.915Z,16.13
2018-02-25T10:02:35.873Z,16.22
2018-02-25T10:03:35.829Z,15.74
2018-02-25T10:04:35.789Z,15.93
2018-02-25T10:05:35.746Z,16.41
2018-02-25T10:06:35.703Z,16.13
2018-02-25T10:07:35.662Z,16.13
2018-02-25T10:08:35.617Z,16.60
2018-02-25T10:09:35.579Z,16.13
2018-02-25T10:10:35.537Z,16.31
2018-02-25T10:11:35.503Z,15.93
2018-02-25T10:12:35.453Z,15.74
2018-02-25T10:13:35.411Z,16.13
2018-02-25T10:14:35.368Z,16.03
2018-02-25T10:15:35.326Z,16.03
2018-02-25T10:16:35.285Z,15.93
2018-02-25T10:17:35.245Z,15.93
2018-02-25T10:18:35.199Z,16.22
2018-02-25T10:19:35.159Z,15.93
2018-02-25T10:20:35.123Z,15.93
2018-02-25T10:21:35.080Z,15.93
2018-02-25T10:22:35.043Z,16.22
2018-02-25T10:23:34.993Z,16.13
2018-02-25T10:24:34.951Z,16.50
2018-02-25T10:25:34.909Z,15.93
2018-02-25T10:26:34.867Z,15.93
2018-02-25T10:27:34.840Z,16.03
2018-02-25T10:28:34.781Z,15.93
2018-02-25T10:29:34.737Z,16.03
2018-02-25T10:30:34.698Z,15.64
2018-02-25T10:31:34.654Z,16.03
2018-02-25T10:32:34.614Z,16.13
2018-02-25T10:33:34.574Z,15.93
2018-02-25T10:34:34.531Z,16.03
2018-02-25T10:35:34.493Z,16.22
2018-02-25T10:36:34.447Z,16.13
2018-02-25T10:37:34.406Z,15.93
2018-02-25T10:38:34.370Z,15.93
2018-02-25T10:39:34.318Z,16.31
2018-02-25T10:40:34.283Z,16.50
2018-02-25T10:41:34.239Z,16.41
2018-02-25T10:42:34.195Z,16.50
2018-02-25T10:43:34.155Z,16.13
2018-02-25T10:44:34.113Z,16.41
2018-02-25T10:45:34.072Z,16.13
2018-02-25T10:46:34.030Z,15.83
2018-02-25T10:47:33.988Z,16.41
2018-02-25T10:48:33.942Z,16.60
2018-02-25T10:49:33.904Z,16.13
2018-02-25T10:50:33.867Z,16.13
2018-02-25T10:51:33.819Z,16.13
2018-02-25T10:52:33.778Z,16.22
2018-02-25T10:53:33.736Z,16.22
2018-02-25T10:54:33.697Z,16.70
2018-02-25T10:55:33.652Z,16.31
2018-02-25T10:56:33.607Z,16.03
2018-02-25T10:57:33.569Z,15.93
2018-02-25T10:58:33.521Z,15.93
2018-02-25T10:59:33.485Z,15.74
2018-02-25T11:00:33.442Z,16.41
2018-02-25T11:01:33.400Z,16.22
2018-02-25T11:02:33.361Z,16.60
2018-02-25T11:03:33.317Z,16.80
2018-02-25T11:04:33.279Z,16.60
2018-02-25T11:05:33.244Z,16.31
2018-02-25T11:06:33.191Z,16.41
2018-02-25T11:07:33.150Z,16.31
2018-02-25T11:08:33.111Z,16.50
2018-02-25T11:09:33.069Z,16.70
2018-02-25T11:10:33.032Z,16.50
2018-02-25T11:11:32.977Z,16.22
2018-02-25T11:12:32.939Z,16.03
2018-02-25T11:13:32.901Z,16.60
2018-02-25T11:14:32.855Z,16.11
2018-02-25T11:15:32.823Z,16.40
2018-02-25T11:16:32.770Z,16.31
2018-02-25T11:17:32.729Z,16.31
2018-02-25T11:18:32.687Z,16.40
2018-02-25T11:19:32.645Z,16.31
2018-02-25T11:20:32.603Z,16.60
2018-02-25T11:21:32.560Z,16.50
2018-02-25T11:22:32.523Z,15.92
2018-02-25T11:23:32.478Z,16.02
2018-02-25T11:24:32.437Z,16.31
2018-02-25T11:25:32.394Z,16.02
2018-02-25T11:26:32.349Z,16.60
2018-02-25T11:27:32.308Z,15.92
2018-02-25T11:28:32.266Z,15.64
2018-02-25T11:29:32.223Z,16.11
2018-02-25T11:30:32.181Z,16.02
2018-02-25T11:31:32.233Z,16.11
2018-02-25T11:32:32.099Z,15.83
2018-02-25T11:33:32.056Z,16.50
2018-02-25T11:34:32.013Z,15.83
2018-02-25T11:35:31.972Z,15.92
2018-02-25T11:36:31.931Z,15.73
2018-02-25T11:37:31.888Z,15.73
2018-02-25T11:38:31.847Z,15.73
2018-02-25T11:39:31.806Z,15.83
2018-02-25T11:40:31.762Z,15.73
2018-02-25T11:41:31.719Z,15.92
2018-02-25T11:42:31.686Z,15.64
2018-02-25T11:43:31.634Z,15.64
2018-02-25T11:44:31.594Z,15.92
2018-02-25T11:45:31.556Z,15.92
2018-02-25T11:46:31.510Z,15.73
2018-02-25T11:47:31.465Z,15.92
2018-02-25T11:48:31.424Z,15.25
2018-02-25T11:49:31.383Z,15.54
2018-02-25T11:50:31.339Z,15.54
2018-02-25T11:51:31.297Z,15.16
2018-02-25T11:52:31.254Z,15.73
2018-02-25T11:53:31.213Z,15.83
2018-02-25T11:54:31.173Z,15.16
2018-02-25T11:55:31.129Z,15.25
2018-02-25T11:56:31.085Z,15.73
2018-02-25T11:57:31.047Z,15.73
2018-02-25T11:58:31.000Z,15.83
2018-02-25T11:59:30.960Z,15.83
2018-02-25T12:00:30.915Z,15.16
2018-02-25T12:01:30.873Z,15.73
2018-02-25T12:02:30.831Z,15.73
2018-02-25T12:03:30.790Z,15.64
2018-02-25T12:04:30.747Z,15.92
2018-02-25T12:05:30.706Z,15.25
2018-02-25T12:06:30.665Z,15.92
2018-02-25T12:07:30.620Z,15.83
2018-02-25T12:08:30.579Z,15.25
2018-02-25T12:09:30.547Z,15.73
2018-02-25T12:10:30.498Z,15.06
2018-02-25T12:11:30.454Z,15.25
2018-02-25T12:12:30.412Z,15.16
2018-02-25T12:13:30.369Z,15.16
2018-02-25T12:14:30.325Z,15.06
2018-02-25T12:15:30.281Z,15.64
2018-02-25T12:16:30.241Z,15.16
2018-02-25T12:17:30.200Z,15.16
2018-02-25T12:18:30.153Z,15.44
2018-02-25T12:19:30.111Z,15.06
2018-02-25T12:20:30.075Z,15.35
2018-02-25T12:21:30.031Z,15.35
2018-02-25T12:22:29.988Z,15.35
2018-02-25T12:23:29.944Z,15.44
2018-02-25T12:24:29.905Z,15.25
2018-02-25T12:25:29.862Z,15.25
2018-02-25T12:26:29.818Z,15.16
2018-02-25T12:27:29.776Z,15.92
2018-02-25T12:28:29.734Z,15.16
2018-02-25T12:29:29.694Z,16.02
2018-02-25T12:30:29.648Z,15.06
2018-02-25T12:31:29.607Z,15.25
2018-02-25T12:32:29.564Z,15.64
2018-02-25T12:33:29.525Z,15.16
2018-02-25T12:34:29.480Z,15.25
2018-02-25T12:35:29.470Z,15.35
2018-02-25T12:36:29.396Z,15.54
2018-02-25T12:37:29.355Z,15.35
2018-02-25T12:38:29.311Z,15.16
2018-02-25T12:39:29.271Z,15.73
2018-02-25T12:40:29.227Z,15.25
2018-02-25T12:41:29.186Z,15.44
2018-02-25T12:42:29.144Z,15.92
2018-02-25T12:43:29.101Z,15.44
2018-02-25T12:44:29.059Z,15.16
2018-02-25T12:45:29.016Z,15.64
2018-02-25T12:46:28.971Z,16.02
2018-02-25T12:47:28.933Z,15.73
2018-02-25T12:48:28.889Z,15.64
2018-02-25T12:49:28.848Z,15.83
2018-02-25T12:50:28.805Z,15.73
2018-02-25T12:51:28.770Z,15.64